![]() |
EMODnet Physics ERDDAP
Easier access to scientific data |
log in|
Brought to you by EMODnet Physics |
| Dataset Title: | NDBC - Collection of dew point temperature (DEWT) TimeSeries - IN SITU MultiPointTimeSeriesObservation
|
| Institution: | NDBC (Dataset ID: TS_DEWT_NDBC) |
| Information: | Summary
| License
| FGDC
| ISO 19115
| Metadata
| Background
| Subset
| Data Access Form
| Make a graph
|
| Name | Last modified | Size | Description | |
|---|---|---|---|---|
| Parent Directory | - | - | ||
| FAIO1_TS_DEWT_012015.nc | 21-Dec-2024 12:59 | 429362 | ||
| FAIO1_TS_DEWT_012018.nc | 21-Dec-2024 13:16 | 429029 | ||
| FAIO1_TS_DEWT_012019.nc | 21-Dec-2024 13:22 | 429367 | ||
| FAIO1_TS_DEWT_012020.nc | 21-Dec-2024 13:29 | 429366 | ||
| FAIO1_TS_DEWT_012021.nc | 21-Dec-2024 13:35 | 429373 | ||
| FAIO1_TS_DEWT_012022.nc | 21-Dec-2024 13:41 | 429368 | ||
| FAIO1_TS_DEWT_012023.nc | 21-Dec-2024 13:48 | 429361 | ||
| FAIO1_TS_DEWT_012025.nc | 07-Feb-2025 13:08 | 429369 | ||
| FAIO1_TS_DEWT_012026.nc | 02-Feb-2026 19:35 | 449930 | ||
| FAIO1_TS_DEWT_022015.nc | 21-Dec-2024 12:59 | 450002 | ||
| FAIO1_TS_DEWT_022018.nc | 21-Dec-2024 13:17 | 449859 | ||
| FAIO1_TS_DEWT_022019.nc | 21-Dec-2024 13:23 | 449521 | ||
| FAIO1_TS_DEWT_022020.nc | 21-Dec-2024 13:29 | 449178 | ||
| FAIO1_TS_DEWT_022021.nc | 21-Dec-2024 13:36 | 450340 | ||
| FAIO1_TS_DEWT_022022.nc | 21-Dec-2024 13:42 | 450576 | ||
| FAIO1_TS_DEWT_022023.nc | 21-Dec-2024 13:48 | 449068 | ||
| FAIO1_TS_DEWT_022025.nc | 01-Mar-2025 07:41 | 429569 | ||
| FAIO1_TS_DEWT_022026.nc | 01-Mar-2026 10:07 | 423497 | ||
| FAIO1_TS_DEWT_032014.nc | 21-Dec-2024 12:54 | 429566 | ||
| FAIO1_TS_DEWT_032015.nc | 21-Dec-2024 13:00 | 423079 | ||
| FAIO1_TS_DEWT_032017.nc | 21-Dec-2024 13:11 | 429571 | ||
| FAIO1_TS_DEWT_032018.nc | 21-Dec-2024 13:17 | 449200 | ||
| FAIO1_TS_DEWT_032019.nc | 21-Dec-2024 13:23 | 449449 | ||
| FAIO1_TS_DEWT_032020.nc | 21-Dec-2024 13:30 | 429574 | ||
| FAIO1_TS_DEWT_032021.nc | 21-Dec-2024 13:36 | 434632 | ||
| FAIO1_TS_DEWT_032022.nc | 21-Dec-2024 13:42 | 429571 | ||
| FAIO1_TS_DEWT_032023.nc | 21-Dec-2024 13:49 | 449732 | ||
| FAIO1_TS_DEWT_032025.nc | 02-Apr-2025 05:58 | 438073 | ||
| FAIO1_TS_DEWT_032026.nc | 25-Mar-2026 11:43 | 450185 | ||
| FAIO1_TS_DEWT_042014.nc | 21-Dec-2024 12:54 | 449775 | ||
| FAIO1_TS_DEWT_042015.nc | 21-Dec-2024 13:00 | 448956 | ||
| FAIO1_TS_DEWT_042017.nc | 21-Dec-2024 13:12 | 2382943 | ||
| FAIO1_TS_DEWT_042018.nc | 21-Dec-2024 13:18 | 429687 | ||
| FAIO1_TS_DEWT_042019.nc | 21-Dec-2024 13:24 | 429531 | ||
| FAIO1_TS_DEWT_042020.nc | 21-Dec-2024 13:30 | 429694 | ||
| FAIO1_TS_DEWT_042021.nc | 21-Dec-2024 13:36 | 429649 | ||
| FAIO1_TS_DEWT_042022.nc | 21-Dec-2024 13:43 | 425793 | ||
| FAIO1_TS_DEWT_042023.nc | 21-Dec-2024 13:49 | 429124 | ||
| FAIO1_TS_DEWT_042025.nc | 01-May-2025 05:34 | 429687 | ||
| FAIO1_TS_DEWT_052014.nc | 21-Dec-2024 12:55 | 429688 | ||
| FAIO1_TS_DEWT_052015.nc | 21-Dec-2024 13:01 | 429696 | ||
| FAIO1_TS_DEWT_052017.nc | 21-Dec-2024 13:12 | 429689 | ||
| FAIO1_TS_DEWT_052018.nc | 21-Dec-2024 13:18 | 429688 | ||
| FAIO1_TS_DEWT_052019.nc | 21-Dec-2024 13:24 | 429699 | ||
| FAIO1_TS_DEWT_052020.nc | 21-Dec-2024 13:31 | 429700 | ||
| FAIO1_TS_DEWT_052021.nc | 21-Dec-2024 13:37 | 429689 | ||
| FAIO1_TS_DEWT_052022.nc | 21-Dec-2024 13:43 | 451035 | ||
| FAIO1_TS_DEWT_052023.nc | 21-Dec-2024 13:50 | 450536 | ||
| FAIO1_TS_DEWT_052025.nc | 01-Jun-2025 05:41 | 450784 | ||
| FAIO1_TS_DEWT_062014.nc | 21-Dec-2024 12:55 | 450784 | ||
| FAIO1_TS_DEWT_062015.nc | 21-Dec-2024 13:01 | 450261 | ||
| FAIO1_TS_DEWT_062017.nc | 21-Dec-2024 13:13 | 450522 | ||
| FAIO1_TS_DEWT_062018.nc | 21-Dec-2024 13:19 | 451217 | ||
| FAIO1_TS_DEWT_062019.nc | 21-Dec-2024 13:25 | 450021 | ||
| FAIO1_TS_DEWT_062020.nc | 21-Dec-2024 13:31 | 429912 | ||
| FAIO1_TS_DEWT_062021.nc | 21-Dec-2024 13:38 | 421370 | ||
| FAIO1_TS_DEWT_062022.nc | 21-Dec-2024 13:44 | 429909 | ||
| FAIO1_TS_DEWT_062023.nc | 21-Dec-2024 13:50 | 429912 | ||
| FAIO1_TS_DEWT_062025.nc | 17-Jun-2025 04:40 | 450249 | ||
| FAIO1_TS_DEWT_072014.nc | 21-Dec-2024 12:56 | 450575 | ||
| FAIO1_TS_DEWT_072015.nc | 21-Dec-2024 13:02 | 429915 | ||
| FAIO1_TS_DEWT_072017.nc | 21-Dec-2024 13:13 | 450104 | ||
| FAIO1_TS_DEWT_072018.nc | 21-Dec-2024 13:19 | 429914 | ||
| FAIO1_TS_DEWT_072019.nc | 21-Dec-2024 13:25 | 433924 | ||
| FAIO1_TS_DEWT_072020.nc | 21-Dec-2024 13:32 | 451181 | ||
| FAIO1_TS_DEWT_072021.nc | 21-Dec-2024 13:38 | 450111 | ||
| FAIO1_TS_DEWT_072022.nc | 21-Dec-2024 13:44 | 450668 | ||
| FAIO1_TS_DEWT_072023.nc | 21-Dec-2024 13:51 | 450140 | ||
| FAIO1_TS_DEWT_072025.nc | 16-Aug-2025 08:09 | 3736889 | ||
| FAIO1_TS_DEWT_082014.nc | 21-Dec-2024 12:56 | 429697 | ||
| FAIO1_TS_DEWT_082015.nc | 21-Dec-2024 13:02 | 429689 | ||
| FAIO1_TS_DEWT_082017.nc | 21-Dec-2024 13:14 | 429693 | ||
| FAIO1_TS_DEWT_082018.nc | 21-Dec-2024 13:20 | 429694 | ||
| FAIO1_TS_DEWT_082019.nc | 21-Dec-2024 13:26 | 429673 | ||
| FAIO1_TS_DEWT_082020.nc | 21-Dec-2024 13:32 | 429679 | ||
| FAIO1_TS_DEWT_082021.nc | 21-Dec-2024 13:39 | 429698 | ||
| FAIO1_TS_DEWT_082022.nc | 21-Dec-2024 13:45 | 429687 | ||
| FAIO1_TS_DEWT_082023.nc | 21-Dec-2024 13:51 | 429688 | ||
| FAIO1_TS_DEWT_082025.nc | 01-Sep-2025 08:03 | 429695 | ||
| FAIO1_TS_DEWT_092014.nc | 21-Dec-2024 12:57 | 429691 | ||
| FAIO1_TS_DEWT_092015.nc | 21-Dec-2024 13:03 | 429688 | ||
| FAIO1_TS_DEWT_092017.nc | 21-Dec-2024 13:14 | 429699 | ||
| FAIO1_TS_DEWT_092018.nc | 21-Dec-2024 13:20 | 429693 | ||
| FAIO1_TS_DEWT_092019.nc | 21-Dec-2024 13:27 | 444877 | ||
| FAIO1_TS_DEWT_092020.nc | 21-Dec-2024 13:33 | 450581 | ||
| FAIO1_TS_DEWT_092021.nc | 21-Dec-2024 13:39 | 450105 | ||
| FAIO1_TS_DEWT_092022.nc | 21-Dec-2024 13:46 | 442384 | ||
| FAIO1_TS_DEWT_092023.nc | 21-Dec-2024 13:52 | 450305 | ||
| FAIO1_TS_DEWT_092025.nc | 01-Oct-2025 08:11 | 451484 | ||
| FAIO1_TS_DEWT_102014.nc | 21-Dec-2024 12:57 | 450588 | ||
| FAIO1_TS_DEWT_102015.nc | 21-Dec-2024 13:03 | 437461 | ||
| FAIO1_TS_DEWT_102017.nc | 21-Dec-2024 13:15 | 429915 | ||
| FAIO1_TS_DEWT_102018.nc | 21-Dec-2024 13:21 | 429914 | ||
| FAIO1_TS_DEWT_102019.nc | 21-Dec-2024 13:27 | 429907 | ||
| FAIO1_TS_DEWT_102021.nc | 21-Dec-2024 13:40 | 450094 | ||
| FAIO1_TS_DEWT_102022.nc | 21-Dec-2024 13:46 | 429910 | ||
| FAIO1_TS_DEWT_102025.nc | 01-Nov-2025 07:53 | 418871 | ||
| FAIO1_TS_DEWT_112014.nc | 21-Dec-2024 12:58 | 429912 | ||
| FAIO1_TS_DEWT_112015.nc | 21-Dec-2024 13:04 | 450149 | ||
| FAIO1_TS_DEWT_112017.nc | 21-Dec-2024 13:15 | 450100 | ||
| FAIO1_TS_DEWT_112018.nc | 21-Dec-2024 13:21 | 450992 | ||
| FAIO1_TS_DEWT_112019.nc | 21-Dec-2024 13:28 | 450718 | ||
| FAIO1_TS_DEWT_112020.nc | 21-Dec-2024 13:34 | 4743643 | ||
| FAIO1_TS_DEWT_112021.nc | 21-Dec-2024 13:40 | 427710 | ||
| FAIO1_TS_DEWT_112022.nc | 21-Dec-2024 13:47 | 427245 | ||
| FAIO1_TS_DEWT_112023.nc | 21-Dec-2024 13:53 | 429370 | ||
| FAIO1_TS_DEWT_112024.nc | 17-Jan-2025 18:46 | 429358 | ||
| FAIO1_TS_DEWT_112025.nc | 01-Dec-2025 05:50 | 429363 | ||
| FAIO1_TS_DEWT_122014.nc | 21-Dec-2024 12:58 | 429364 | ||
| FAIO1_TS_DEWT_122015.nc | 21-Dec-2024 13:04 | 429358 | ||
| FAIO1_TS_DEWT_122017.nc | 21-Dec-2024 13:16 | 429342 | ||
| FAIO1_TS_DEWT_122018.nc | 21-Dec-2024 13:22 | 429369 | ||
| FAIO1_TS_DEWT_122019.nc | 21-Dec-2024 13:28 | 429351 | ||
| FAIO1_TS_DEWT_122020.nc | 21-Dec-2024 13:35 | 429363 | ||
| FAIO1_TS_DEWT_122021.nc | 21-Dec-2024 13:41 | 429364 | ||
| FAIO1_TS_DEWT_122022.nc | 21-Dec-2024 13:47 | 429369 | ||
| FAIO1_TS_DEWT_122023.nc | 21-Dec-2024 13:53 | 429358 | ||
| FAIO1_TS_DEWT_122024.nc | 22-Jan-2025 19:04 | 429370 | ||
| FAIO1_TS_DEWT_122025.nc | 30-Dec-2025 06:06 | 450271 | ||